Angela Dawn — WDE3735 — position and weather

sailwx.info

Track history (hours):
 
Tides and Currents Weather Stations Pressure Air Temp Water Temp Dewpoint Dewpoint Depression Visibility Wind Speed Wind Dir Waves Ship Positions

Angela Dawn

Owner: Star Dog Yachts LLC, Virginia Beach, VA. More information available from US FCC via Universal Licensing System and Coast Guard Vessel Documentation Center.

Last reported at 2018-May-30 14:58 UTC. Time now 2018-Aug-20 16:17 UTC.
Position N 36°48' W 076°17'.
Warning: this ship's position is months out of date.

Length 23 m.

Type: Pleasure craft. MMSI: 367343470.

Date/timePositionNaut miles runAvg speedWind from/ knotsBaromVisibWave heightAir tempDewpointWater temp
2018-May-30 14:58N 36°48' W 076°17'121 4.9
2018-May-29 14:31N 34°49' W 076°41'1 9.1
2018-May-29 14:25N 34°48' W 076°41'715.3
2018-May-29 13:59N 34°42' W 076°40'199 6.4
2018-May-28 06:47N 32°47' W 079°55'0 0.0
2018-May-28 05:13N 32°47' W 079°55'0 0.0
2018-May-28 04:58N 32°47' W 079°55'0 0.0
2018-May-28 04:28N 32°47' W 079°55'0 0.0
2018-May-28 03:43N 32°47' W 079°55'0 0.0
2018-May-28 03:16N 32°47' W 079°55'0 0.0
2018-May-28 01:40N 32°47' W 079°55'  
2018-May-25 14:17N 26°59' W 080°03'4825.5
2018-May-25 12:25N 26°11' W 080°05'511.7
2018-May-25 11:59N 26°07' W 080°07'1 1.6
2018-May-25 11:30N 26°07' W 080°06'0 0.0
2018-May-24 15:27N 26°07' W 080°06'0 0.0
2018-May-24 15:00N 26°07' W 080°06'0 0.0
2018-May-24 14:24N 26°07' W 080°06'0 0.0
2018-May-24 13:42N 26°07' W 080°06'0 0.0
2018-May-24 13:18N 26°07' W 080°06'0 0.0
2018-May-23 17:19N 26°07' W 080°06'0 0.0
2018-May-23 16:48N 26°07' W 080°06'0 0.4
2018-May-23 16:12N 26°07' W 080°07'0 0.3
2018-May-23 16:00N 26°07' W 080°07'0 0.3
2018-May-23 15:13N 26°07' W 080°06'0 0.0
2018-May-23 14:58N 26°07' W 080°06'0 0.0
2018-May-23 14:28N 26°07' W 080°06'0 0.0
2018-May-23 13:58N 26°07' W 080°06'0 0.0
2018-May-23 13:28N 26°07' W 080°06'0 0.0
2018-May-23 12:55N 26°07' W 080°06'0 0.0
2018-May-22 19:07N 26°07' W 080°06'0 0.0
2018-May-22 16:40N 26°07' W 080°06'0 0.0
2018-May-22 14:01N 26°07' W 080°06'0 0.0
2018-May-22 13:49N 26°07' W 080°06'0 0.0
2018-May-22 10:46N 26°07' W 080°06'0 0.0
2018-May-22 09:40N 26°07' W 080°06'0 0.0
2018-May-22 03:21N 26°07' W 080°06'0 0.0
2018-May-21 22:12N 26°07' W 080°06'0 0.0
2018-May-21 22:00N 26°07' W 080°06'0 0.0
2018-May-21 20:39N 26°07' W 080°06'0 0.0
2018-May-21 20:30N 26°07' W 080°06'  
Track history (hours):
 
Tides and Currents Weather Stations Pressure Air Temp Water Temp Dewpoint Dewpoint Depression Visibility Wind Speed Wind Dir Waves Ship Positions

Angela Dawn

Owner: Star Dog Yachts LLC, Virginia Beach, VA. More information available from US FCC via Universal Licensing System and Coast Guard Vessel Documentation Center.

Last reported at 2018-May-30 14:58 UTC. Time now 2018-Aug-20 16:17 UTC.
Position N 36°48' W 076°17'.
Warning: this ship's position is months out of date.

Length 23 m.

Type: Pleasure craft. MMSI: 367343470.

Date/timePositionNaut miles runAvg speedWind from/ knotsBaromVisibWave heightAir tempDewpointWater temp
2018-May-30 14:58N 36°48' W 076°17'121 4.9
2018-May-29 14:31N 34°49' W 076°41'1 9.1
2018-May-29 14:25N 34°48' W 076°41'715.3
2018-May-29 13:59N 34°42' W 076°40'199 6.4
2018-May-28 06:47N 32°47' W 079°55'0 0.0
2018-May-28 05:13N 32°47' W 079°55'0 0.0
2018-May-28 04:58N 32°47' W 079°55'0 0.0
2018-May-28 04:28N 32°47' W 079°55'0 0.0
2018-May-28 03:43N 32°47' W 079°55'0 0.0
2018-May-28 03:16N 32°47' W 079°55'0 0.0
2018-May-28 01:40N 32°47' W 079°55'  
2018-May-25 14:17N 26°59' W 080°03'4825.5
2018-May-25 12:25N 26°11' W 080°05'511.7
2018-May-25 11:59N 26°07' W 080°07'1 1.6
2018-May-25 11:30N 26°07' W 080°06'0 0.0
2018-May-24 15:27N 26°07' W 080°06'0 0.0
2018-May-24 15:00N 26°07' W 080°06'0 0.0
2018-May-24 14:24N 26°07' W 080°06'0 0.0
2018-May-24 13:42N 26°07' W 080°06'0 0.0
2018-May-24 13:18N 26°07' W 080°06'0 0.0
2018-May-23 17:19N 26°07' W 080°06'0 0.0
2018-May-23 16:48N 26°07' W 080°06'0 0.4
2018-May-23 16:12N 26°07' W 080°07'0 0.3
2018-May-23 16:00N 26°07' W 080°07'0 0.3
2018-May-23 15:13N 26°07' W 080°06'0 0.0
2018-May-23 14:58N 26°07' W 080°06'0 0.0
2018-May-23 14:28N 26°07' W 080°06'0 0.0
2018-May-23 13:58N 26°07' W 080°06'0 0.0
2018-May-23 13:28N 26°07' W 080°06'0 0.0
2018-May-23 12:55N 26°07' W 080°06'0 0.0
2018-May-22 19:07N 26°07' W 080°06'0 0.0
2018-May-22 16:40N 26°07' W 080°06'0 0.0
2018-May-22 14:01N 26°07' W 080°06'0 0.0
2018-May-22 13:49N 26°07' W 080°06'0 0.0
2018-May-22 10:46N 26°07' W 080°06'0 0.0
2018-May-22 09:40N 26°07' W 080°06'0 0.0
2018-May-22 03:21N 26°07' W 080°06'0 0.0
2018-May-21 22:12N 26°07' W 080°06'0 0.0
2018-May-21 22:00N 26°07' W 080°06'0 0.0
2018-May-21 20:39N 26°07' W 080°06'0 0.0
2018-May-21 20:30N 26°07' W 080°06'  

Dump ship's entire track history